Dillant Hopkins Airport Keene US
ICAO: KEEN
IATA: EEN
Category: Medium
Scheduled Services: No

Elevation: 488 ft
TransAlt. 18000 ft.

Airport Communications:
AWOS 3:119.025
BOSTON CNTR:123.75
BANGOR RDO:109.4
CTAF/UNICOM:123

KEEN Zoom In..

If you have problems with the map follow the link
https://www.worldairports.se/pages/airport.php?
ICAO=KEEN

Runways:

(A) RW 02 length 6201 ft width 100 ft
ILS 108.90 / hdg 18

(B) RW 14 length 4001 ft width 150 ft
---- / hdg 142

(C) RW 20 length 6201 ft width 100 ft
---- / hdg 198

(D) RW 32 length 4001 ft width 150 ft
---- / hdg 322

Location; KEEN
Day. 16 / Time. 11.56 Zulu
* Altimeter: 29.66
* Temperature: -02° c. -28.4°f.
* Wind from: 350° Speed 08 kn.
Dewpoint: -03° c.
Visibility: 4 Statute Miles.
Clouds: Broken 1300 ft.
Clouds: Overcast 1700 ft.
Conditions: Light Snow.Conditions: Mist.

KEEN 161156Z AUTO 35008KT 4SM -SN BR BKN013 OVC017 M02/M03 A2966 RMK AO2 SLP064 P0000 60008 70015 T10171028 11011 21033 56035 FZRANO $


Wind From 350°
Speed 08 kn.

 
 
jpsmedia.com for Web Design worldairports.se 2018   terms of use